Time;durP1;ratioP1;P1;durP2;ratioP2;P2;SDS_P1;SDS_P2;PMS_P1;PMS_P2;Temp;Humidity;BMP_temperature;BMP_pressure;BME280_temperature;BME280_humidity;BME280_pressure;Samples;Min_cycle;Max_cycle;Signal;HPM_P1;HPM_P2
2023/01/07 00:01:12;;;;;;;2.92;0.70;;;;;;;11.40;81.03;99111.16;5039632;28;20548;-61
2023/01/07 00:03:39;;;;;;;5.93;0.55;;;;;;;11.39;80.65;99112.88;5035708;28;20041;-60
2023/01/07 00:06:08;;;;;;;5.38;0.60;;;;;;;11.39;81.30;99106.84;5030853;28;20056;-60
2023/01/07 00:08:38;;;;;;;7.13;1.02;;;;;;;11.37;80.72;99101.69;5028850;28;20041;-60
2023/01/07 00:11:08;;;;;;;5.22;0.80;;;;;;;11.32;80.66;99083.63;5032569;28;20064;-59
2023/01/07 00:13:36;;;;;;;4.57;1.00;;;;;;;11.42;80.15;99101.59;5033537;28;20103;-60
2023/01/07 00:16:08;;;;;;;2.83;0.90;;;;;;;11.47;80.38;99109.25;5036040;28;20053;-60
2023/01/07 00:18:35;;;;;;;5.22;0.73;;;;;;;11.41;80.44;99105.94;5033529;28;20673;-58
2023/01/07 00:21:05;;;;;;;4.43;1.00;;;;;;;11.36;79.91;99096.53;5034230;28;20559;-60
2023/01/07 00:23:34;;;;;;;3.90;0.93;;;;;;;11.40;79.37;99103.38;5032210;28;20045;-60
2023/01/07 00:26:03;;;;;;;4.85;0.90;;;;;;;11.45;78.99;99106.69;5029564;28;20057;-60
2023/01/07 00:28:32;;;;;;;6.72;0.90;;;;;;;11.47;79.68;99099.75;5031664;28;20489;-59
2023/01/07 00:31:02;;;;;;;4.97;1.52;;;;;;;11.42;79.05;99092.06;5031974;28;20105;-60
2023/01/07 00:33:29;;;;;;;10.30;1.73;;;;;;;11.44;79.22;99097.22;5026137;28;20386;-60
2023/01/07 00:36:07;;;;;;;6.03;1.15;;;;;;;11.46;79.60;99077.31;5029990;28;20725;-60
2023/01/07 00:38:35;;;;;;;2.47;2.05;;;;;;;11.43;78.95;99072.19;5031536;28;20198;-60
2023/01/07 00:41:03;;;;;;;3.78;1.02;;;;;;;11.40;78.95;99072.25;5029383;28;20053;-60
2023/01/07 00:43:29;;;;;;;3.70;1.00;;;;;;;11.45;80.23;99073.00;5023865;28;20054;-61
2023/01/07 00:45:56;;;;;;;7.43;0.95;;;;;;;11.45;79.58;99073.00;5017998;28;20111;-59
2023/01/07 00:48:24;;;;;;;4.05;1.30;;;;;;;11.42;78.94;99066.16;5019521;28;20558;-60
2023/01/07 00:50:51;;;;;;;3.50;1.13;;;;;;;11.43;80.15;99069.59;5021154;28;20045;-61
2023/01/07 00:53:18;;;;;;;4.07;0.93;;;;;;;11.45;79.20;99070.41;5015170;28;20040;-60
2023/01/07 00:55:47;;;;;;;5.30;1.02;;;;;;;11.39;79.49;99060.19;5018332;28;20464;-61
2023/01/07 00:58:17;;;;;;;7.55;2.22;;;;;;;11.43;80.35;99061.81;5022090;28;20501;-61
2023/01/07 01:00:43;;;;;;;2.40;0.60;;;;;;;11.41;79.86;99053.22;5016356;28;20176;-60
2023/01/07 01:03:11;;;;;;;2.38;0.95;;;;;;;11.44;79.29;99047.97;5019542;28;20042;-57
2023/01/07 01:05:38;;;;;;;6.78;1.70;;;;;;;11.41;80.40;99033.34;5017314;28;20380;-60
2023/01/07 01:08:05;;;;;;;5.70;1.23;;;;;;;11.45;79.79;99039.28;5021204;28;20457;-60
2023/01/07 01:10:32;;;;;;;2.58;1.48;;;;;;;11.44;79.70;99024.63;5021344;28;20049;-60
2023/01/07 01:12:59;;;;;;;4.30;0.93;;;;;;;11.45;79.36;99028.91;5017201;28;20176;-59
2023/01/07 01:15:26;;;;;;;4.72;1.15;;;;;;;11.45;79.08;99013.34;5023020;28;20107;-60
2023/01/07 01:17:53;;;;;;;5.57;1.73;;;;;;;11.51;79.81;99002.84;5023790;28;20069;-60
2023/01/07 01:20:20;;;;;;;4.07;1.05;;;;;;;11.48;79.48;99002.91;5020907;28;20533;-59
2023/01/07 01:22:46;;;;;;;6.90;1.23;;;;;;;11.51;79.63;98992.47;5019488;28;20095;-59
2023/01/07 01:25:13;;;;;;;8.65;1.70;;;;;;;11.50;79.49;98985.59;5020566;28;20092;-60
2023/01/07 01:27:40;;;;;;;6.80;1.20;;;;;;;11.50;79.99;98993.38;5015841;28;20084;-59
2023/01/07 01:30:07;;;;;;;5.47;1.08;;;;;;;11.43;81.21;98984.03;5019624;28;20144;-59
2023/01/07 01:32:34;;;;;;;5.80;1.15;;;;;;;11.42;81.06;98974.56;5020137;28;20108;-60
2023/01/07 01:35:00;;;;;;;5.57;1.35;;;;;;;11.36;80.87;98982.47;5021188;28;20129;-61
2023/01/07 01:37:27;;;;;;;4.82;1.08;;;;;;;11.40;81.41;98973.72;5019817;28;20041;-60
2023/01/07 01:39:53;;;;;;;3.15;1.02;;;;;;;11.36;81.78;98961.72;5016532;28;20045;-61
2023/01/07 01:42:23;;;;;;;2.45;1.17;;;;;;;11.38;81.39;98960.81;5013184;28;20050;-60
2023/01/07 01:53:01;;;;;;;5.30;2.08;;;;;;;11.53;81.44;98938.84;5008164;28;20422;-60
2023/01/07 01:55:35;;;;;;;6.38;1.38;;;;;;;11.29;82.14;98935.94;5006558;28;20054;-60
2023/01/07 01:58:08;;;;;;;3.85;1.40;;;;;;;11.18;82.41;98931.03;5010594;28;20041;-59
2023/01/07 02:00:35;;;;;;;4.63;1.55;;;;;;;11.22;82.77;98918.00;5020013;28;20041;-59
2023/01/07 02:03:04;;;;;;;3.50;1.23;;;;;;;11.18;81.93;98912.88;5020762;28;20123;-59
2023/01/07 02:11:05;;;;;;;3.63;1.38;;;;;;;11.14;81.44;98881.88;5019107;28;20405;-60
2023/01/07 02:28:38;;;;;;;4.13;1.73;;;;;;;11.38;80.55;98902.94;5025054;27;20410;-58
2023/01/07 02:36:49;;;;;;;5.63;1.50;;;;;;;11.26;80.48;98889.38;5047877;27;20405;-58
2023/01/07 02:41:58;;;;;;;3.38;1.40;;;;;;;11.30;80.99;98901.38;5055484;28;20912;-59
2023/01/07 02:47:15;;;;;;;3.92;2.50;;;;;;;11.31;81.15;98882.34;5024078;28;20406;-59
2023/01/07 02:49:42;;;;;;;3.13;2.22;;;;;;;11.36;80.03;98868.41;5013567;28;20103;-59
2023/01/07 02:52:21;;;;;;;5.75;2.03;;;;;;;11.38;79.72;98877.00;5016862;28;20657;-60
2023/01/07 03:00:37;;;;;;;7.18;1.48;;;;;;;11.36;79.91;98853.72;5038197;28;20412;-59
2023/01/07 03:03:44;;;;;;;3.15;1.45;;;;;;;11.31;79.31;98850.38;5012321;28;20265;-61
2023/01/07 03:09:18;;;;;;;6.60;2.78;;;;;;;11.32;78.85;98841.72;5055676;28;20399;-59
2023/01/07 03:11:51;;;;;;;6.00;2.58;;;;;;;11.29;79.90;98821.06;5030833;28;20045;-59
2023/01/07 03:14:22;;;;;;;5.80;2.80;;;;;;;11.29;79.85;98834.84;5031991;28;20131;-58
2023/01/07 03:16:54;;;;;;;3.50;2.78;;;;;;;11.34;79.65;98824.38;5033058;28;20106;-60
2023/01/07 03:19:27;;;;;;;6.85;2.45;;;;;;;11.37;80.02;98833.81;5032581;28;20055;-59
2023/01/07 03:21:57;;;;;;;3.60;1.13;;;;;;;11.37;78.77;98831.22;5031205;28;24166;-60
2023/01/07 03:24:25;;;;;;;8.88;2.55;;;;;;;11.26;79.96;98811.63;5032104;28;20883;-60
2023/01/07 03:26:57;;;;;;;4.68;2.03;;;;;;;11.25;79.48;98802.13;5031173;28;20087;-59
2023/01/07 03:29:24;;;;;;;5.30;2.92;;;;;;;11.24;80.91;98802.16;5030170;28;20104;-59
2023/01/07 03:32:13;;;;;;;4.35;2.42;;;;;;;11.10;81.05;98799.91;5036787;28;20064;-59
2023/01/07 03:34:41;;;;;;;4.47;2.53;;;;;;;11.10;80.62;98797.31;5035213;28;20357;-60
2023/01/07 03:37:13;;;;;;;3.08;2.20;;;;;;;11.01;81.60;98801.84;5029039;28;20148;-60
2023/01/07 03:39:42;;;;;;;5.43;2.42;;;;;;;11.02;82.37;98793.19;5035609;28;20049;-59
2023/01/07 03:44:58;;;;;;;3.65;2.80;;;;;;;10.98;82.47;98788.13;5034345;28;20068;-58
2023/01/07 03:47:27;;;;;;;5.28;2.22;;;;;;;11.00;81.62;98779.44;5037186;28;20160;-59
2023/01/07 03:49:54;;;;;;;4.57;2.08;;;;;;;11.00;82.15;98779.44;5032625;28;20084;-60
2023/01/07 03:52:20;;;;;;;4.75;2.20;;;;;;;10.99;82.84;98772.56;5035040;28;20077;-58
2023/01/07 03:54:47;;;;;;;5.35;2.95;;;;;;;10.97;81.94;98769.13;5031325;28;20053;-59
2023/01/07 03:57:14;;;;;;;5.32;1.85;;;;;;;10.93;82.43;98762.34;5033797;28;20049;-57
2023/01/07 03:59:40;;;;;;;4.03;2.40;;;;;;;10.94;82.95;98753.66;5035560;28;20112;-59
2023/01/07 04:02:07;;;;;;;6.20;3.17;;;;;;;10.90;82.23;98754.63;5037257;28;20049;-59
2023/01/07 04:04:34;;;;;;;3.88;2.67;;;;;;;10.96;82.40;98740.69;5033670;28;20519;-58
2023/01/07 04:07:00;;;;;;;4.10;2.00;;;;;;;10.98;81.86;98733.72;5028801;28;20046;-59
2023/01/07 04:09:27;;;;;;;6.65;2.60;;;;;;;10.92;82.55;98726.97;5031211;28;20081;-58
2023/01/07 04:11:54;;;;;;;4.55;2.15;;;;;;;10.97;82.62;98726.84;5025361;28;20096;-59
2023/01/07 04:14:20;;;;;;;2.85;2.55;;;;;;;10.96;81.30;98730.31;5026643;28;20057;-59
2023/01/07 04:16:49;;;;;;;3.85;2.70;;;;;;;11.02;82.04;98715.47;5028579;28;20049;-58
2023/01/07 04:19:17;;;;;;;4.53;2.28;;;;;;;11.04;80.83;98716.28;5014832;28;20037;-59
2023/01/07 04:21:43;;;;;;;5.40;4.00;;;;;;;11.09;81.40;98699.75;5014101;28;20077;-59
2023/01/07 04:24:10;;;;;;;4.88;2.47;;;;;;;11.00;81.16;98701.72;5014302;28;20057;-57
2023/01/07 04:26:37;;;;;;;4.20;2.28;;;;;;;11.05;80.91;98696.41;5010467;28;20064;-59
2023/01/07 04:29:04;;;;;;;5.93;3.00;;;;;;;11.07;80.91;98686.00;5012502;28;20088;-58
2023/01/07 04:31:30;;;;;;;4.75;2.35;;;;;;;11.06;80.88;98695.53;5011138;28;20058;-59
2023/01/07 04:33:57;;;;;;;6.80;2.70;;;;;;;11.13;80.78;98680.66;5016686;28;20052;-58
2023/01/07 04:36:24;;;;;;;4.78;2.13;;;;;;;11.03;80.74;98680.03;5016051;28;20053;-59
2023/01/07 04:38:50;;;;;;;2.65;1.88;;;;;;;11.03;80.16;98680.91;5014717;28;20046;-59
2023/01/07 04:41:17;;;;;;;4.88;2.33;;;;;;;11.02;80.85;98663.63;5014308;28;20121;-59
2023/01/07 04:43:44;;;;;;;5.60;3.15;;;;;;;11.01;81.10;98667.13;5012266;28;20053;-59
2023/01/07 04:46:10;;;;;;;6.57;2.92;;;;;;;11.03;80.55;98652.41;5010942;28;20054;-58
2023/01/07 04:48:37;;;;;;;6.85;2.65;;;;;;;11.04;81.19;98661.88;5012286;28;20053;-58
2023/01/07 04:51:04;;;;;;;9.25;2.65;;;;;;;10.98;80.24;98645.66;5011484;28;20145;-59
2023/01/07 04:53:30;;;;;;;5.07;2.35;;;;;;;10.95;81.23;98646.59;5015420;28;20497;-59
2023/01/07 04:55:57;;;;;;;2.65;2.40;;;;;;;10.89;80.42;98637.25;5015288;28;20042;-59
2023/01/07 04:58:24;;;;;;;11.13;2.92;;;;;;;10.87;81.16;98620.00;5012326;28;20107;-58
2023/01/07 05:00:52;;;;;;;6.45;2.65;;;;;;;10.91;80.62;98634.63;5015202;28;20057;-60
2023/01/07 05:03:19;;;;;;;4.57;2.83;;;;;;;10.84;81.92;98612.34;5014983;28;20053;-59
2023/01/07 05:05:46;;;;;;;7.03;2.60;;;;;;;10.83;82.05;98605.44;5015189;28;20104;-57
2023/01/07 05:08:12;;;;;;;3.88;2.58;;;;;;;10.80;81.29;98607.25;5016348;28;20123;-58
2023/01/07 05:10:39;;;;;;;2.53;2.13;;;;;;;10.77;81.43;98594.38;5010393;28;20076;-58
2023/01/07 05:13:06;;;;;;;6.15;2.78;;;;;;;10.82;81.75;98578.72;5013269;28;20084;-56
2023/01/07 05:15:33;;;;;;;5.22;2.85;;;;;;;10.77;81.82;98581.44;5016660;28;20111;-59
2023/01/07 05:17:59;;;;;;;4.05;2.60;;;;;;;10.83;81.28;98574.38;5016081;28;20095;-58
2023/01/07 05:20:26;;;;;;;3.20;2.63;;;;;;;10.85;81.70;98582.97;5016146;28;20057;-59
2023/01/07 05:22:52;;;;;;;4.45;3.03;;;;;;;10.86;81.90;98582.91;5012303;28;20123;-58
2023/01/07 05:25:19;;;;;;;4.68;2.85;;;;;;;10.78;80.81;98572.75;5018213;28;20065;-58
2023/01/07 05:27:46;;;;;;;5.80;2.22;;;;;;;10.82;81.19;98573.53;5008101;28;20042;-58
2023/01/07 05:30:12;;;;;;;8.52;3.20;;;;;;;10.78;81.67;98567.56;5011838;28;20153;-59
2023/01/07 05:32:39;;;;;;;4.70;1.40;;;;;;;10.71;81.34;98558.28;5010972;28;20503;-58
2023/01/07 05:35:06;;;;;;;5.18;2.38;;;;;;;10.72;81.14;98572.09;5011690;28;20045;-58
2023/01/07 05:37:33;;;;;;;4.15;2.47;;;;;;;10.71;81.75;98545.31;5007796;28;20038;-58
2023/01/07 05:39:59;;;;;;;4.43;2.88;;;;;;;10.65;81.51;98550.69;5017134;28;20103;-59
2023/01/07 05:42:26;;;;;;;4.88;3.15;;;;;;;10.66;82.19;98547.19;5012179;28;20505;-58
2023/01/07 05:44:53;;;;;;;4.75;2.65;;;;;;;10.61;81.67;98549.06;5012857;28;20599;-58
2023/01/07 05:47:19;;;;;;;4.90;2.60;;;;;;;10.60;82.42;98537.03;5013056;28;20375;-58
2023/01/07 05:49:46;;;;;;;6.05;3.17;;;;;;;10.54;82.43;98540.63;5011184;28;20056;-58
2023/01/07 05:52:13;;;;;;;3.85;2.80;;;;;;;10.56;82.44;98533.66;5010047;28;20675;-59
2023/01/07 05:54:39;;;;;;;3.22;2.28;;;;;;;10.49;83.33;98527.81;5018286;28;20523;-57
2023/01/07 05:57:06;;;;;;;3.60;2.67;;;;;;;10.47;83.27;98515.81;5010595;28;20045;-58
2023/01/07 05:59:33;;;;;;;2.40;2.15;;;;;;;10.39;83.00;98521.13;5011433;28;20154;-57
2023/01/07 06:02:00;;;;;;;4.82;2.38;;;;;;;10.42;83.43;98513.28;5016249;28;20050;-58
2023/01/07 06:04:27;;;;;;;2.83;2.35;;;;;;;10.41;82.67;98501.25;5010982;28;20053;-57
2023/01/07 06:06:54;;;;;;;4.25;2.70;;;;;;;10.43;83.48;98504.63;5014685;28;20049;-58
2023/01/07 06:09:21;;;;;;;3.60;2.53;;;;;;;10.36;82.88;98487.56;5010167;28;20072;-58
2023/01/07 06:11:48;;;;;;;4.43;3.45;;;;;;;10.36;82.80;98472.91;5008238;28;20108;-57
2023/01/07 06:14:14;;;;;;;4.22;2.88;;;;;;;10.35;83.02;98475.53;5012389;28;20144;-58
2023/01/07 06:16:41;;;;;;;5.50;3.60;;;;;;;10.34;82.44;98468.66;5010699;28;20061;-57
2023/01/07 06:19:07;;;;;;;6.68;3.72;;;;;;;10.33;83.11;98461.78;5006651;28;20561;-58
2023/01/07 06:21:34;;;;;;;5.13;3.15;;;;;;;10.37;82.69;98463.41;5013608;28;20049;-58
2023/01/07 06:24:00;;;;;;;2.50;2.20;;;;;;;10.33;81.87;98456.63;5012882;28;20127;-58
2023/01/07 06:26:27;;;;;;;4.80;2.53;;;;;;;10.35;82.24;98454.81;5018322;28;20504;-57
2023/01/07 06:28:54;;;;;;;4.80;4.32;;;;;;;10.33;82.13;98451.44;5007760;28;20137;-58
2023/01/07 06:31:20;;;;;;;5.38;2.63;;;;;;;10.33;82.38;98436.75;5012010;28;20106;-57
2023/01/07 06:33:47;;;;;;;4.38;3.17;;;;;;;10.27;83.02;98442.94;5010201;28;20135;-57
2023/01/07 06:36:14;;;;;;;3.95;1.40;;;;;;;10.37;81.63;98440.13;5014004;28;20513;-58
2023/01/07 06:38:40;;;;;;;3.33;2.15;;;;;;;10.32;82.49;98440.22;5012635;28;20119;-58
2023/01/07 06:41:08;;;;;;;2.67;2.20;;;;;;;10.30;82.71;98434.22;5013438;28;20076;-57
2023/01/07 06:43:34;;;;;;;4.25;2.75;;;;;;;10.26;82.86;98420.53;5008046;28;20068;-57
2023/01/07 06:46:01;;;;;;;4.15;2.88;;;;;;;10.28;82.60;98416.19;5010976;28;20054;-57
2023/01/07 06:48:28;;;;;;;4.25;2.25;;;;;;;10.27;82.23;98411.88;5018840;28;20045;-57
2023/01/07 06:50:54;;;;;;;3.83;2.65;;;;;;;10.23;82.06;98410.28;5013699;28;20103;-58
2023/01/07 06:53:21;;;;;;;2.67;2.42;;;;;;;10.27;81.88;98401.53;5007491;28;20077;-57
2023/01/07 06:55:49;;;;;;;2.17;1.02;;;;;;;10.21;82.07;98388.78;5008635;28;20453;-58
2023/01/07 06:58:16;;;;;;;4.22;2.97;;;;;;;10.23;81.59;98397.34;5007706;28;20553;-58
2023/01/07 07:00:42;;;;;;;3.97;2.42;;;;;;;10.22;82.43;98392.22;5011941;28;20049;-57
2023/01/07 07:03:09;;;;;;;4.75;2.40;;;;;;;10.26;81.78;98410.19;5011670;28;20080;-58
2023/01/07 07:05:36;;;;;;;3.58;2.03;;;;;;;10.20;82.49;98392.25;5010291;28;20049;-57
2023/01/07 07:08:03;;;;;;;5.68;2.25;;;;;;;10.18;82.41;98388.00;5013502;28;20038;-57
2023/01/07 07:10:30;;;;;;;2.88;2.47;;;;;;;10.15;82.82;98381.19;5008520;28;20076;-59
2023/01/07 07:12:57;;;;;;;4.88;2.58;;;;;;;10.20;82.80;98378.47;5007174;28;20045;-58
2023/01/07 07:15:23;;;;;;;4.00;2.35;;;;;;;10.12;82.83;98381.25;5011004;28;20050;-59
2023/01/07 07:17:50;;;;;;;2.42;1.83;;;;;;;10.12;82.20;98365.75;5009347;28;20103;-59
2023/01/07 07:20:17;;;;;;;6.13;1.92;;;;;;;10.06;83.29;98360.75;5016348;28;20386;-58
2023/01/07 07:22:45;;;;;;;3.33;2.75;;;;;;;10.01;83.27;98353.97;5013838;28;20685;-58
2023/01/07 07:25:11;;;;;;;3.05;1.88;;;;;;;10.00;83.17;98352.25;5013025;28;20131;-58
2023/01/07 07:27:38;;;;;;;4.80;2.50;;;;;;;9.99;83.39;98349.72;5011681;28;20103;-58
2023/01/07 07:30:07;;;;;;;4.03;2.85;;;;;;;9.95;83.56;98356.72;5011541;28;20042;-58
2023/01/07 07:32:33;;;;;;;3.33;2.15;;;;;;;9.92;83.52;98343.88;5011222;28;20041;-58
2023/01/07 07:35:00;;;;;;;2.88;2.55;;;;;;;9.87;83.47;98345.75;5011420;28;20081;-58
2023/01/07 07:37:26;;;;;;;4.53;2.42;;;;;;;9.88;83.04;98347.44;5006363;28;20480;-59
2023/01/07 07:39:53;;;;;;;3.75;2.47;;;;;;;9.85;83.56;98340.59;5007089;28;20057;-57
2023/01/07 07:42:20;;;;;;;2.53;2.13;;;;;;;9.81;83.52;98343.31;5008437;28;20076;-58
2023/01/07 07:44:46;;;;;;;2.55;2.35;;;;;;;9.83;83.58;98333.78;5008643;28;20081;-58
2023/01/07 07:47:13;;;;;;;6.50;2.08;;;;;;;9.77;83.57;98332.22;5011312;28;20099;-58
2023/01/07 07:49:39;;;;;;;3.67;2.08;;;;;;;9.79;84.10;98327.00;5010521;28;20132;-58
2023/01/07 07:52:06;;;;;;;2.17;1.30;;;;;;;9.74;84.29;98330.56;5009363;28;20193;-59
2023/01/07 07:54:33;;;;;;;6.07;2.88;;;;;;;9.74;83.51;98315.06;5012003;28;20129;-58
2023/01/07 07:57:02;;;;;;;5.57;2.70;;;;;;;9.72;84.32;98303.03;5011644;28;20049;-58
2023/01/07 07:59:29;;;;;;;2.15;1.90;;;;;;;9.75;83.58;98306.41;5016088;28;20046;-59
2023/01/07 08:01:56;;;;;;;3.22;2.25;;;;;;;9.74;83.56;98291.78;5013298;28;20168;-58
2023/01/07 08:04:23;;;;;;;4.20;2.03;;;;;;;9.69;83.82;98292.81;5012955;28;20141;-57
2023/01/07 08:06:49;;;;;;;3.65;2.63;;;;;;;9.71;83.50;98296.19;5019271;28;20057;-57
2023/01/07 08:09:16;;;;;;;5.75;2.15;;;;;;;9.76;83.64;98292.56;5010861;28;20068;-58
2023/01/07 08:11:42;;;;;;;3.78;1.98;;;;;;;9.76;83.92;98296.88;5010795;28;20084;-58
2023/01/07 08:14:09;;;;;;;6.20;1.98;;;;;;;9.78;83.50;98279.59;5017893;28;20074;-58
2023/01/07 08:16:36;;;;;;;2.88;2.55;;;;;;;9.72;83.46;98296.13;5013422;28;20073;-58
2023/01/07 08:19:02;;;;;;;2.45;2.03;;;;;;;9.72;83.81;98293.56;5013712;28;20074;-58
2023/01/07 08:21:29;;;;;;;3.42;0.88;;;;;;;9.67;84.01;98287.69;5014057;28;20459;-58
2023/01/07 08:23:55;;;;;;;4.75;2.33;;;;;;;9.74;83.48;98289.19;5011303;28;20077;-57
2023/01/07 08:26:23;;;;;;;5.57;2.08;;;;;;;9.67;83.83;98287.69;5016513;28;20065;-57
2023/01/07 08:28:50;;;;;;;2.63;2.17;;;;;;;9.71;84.73;98289.28;5010876;28;20048;-58
2023/01/07 08:31:16;;;;;;;2.67;2.33;;;;;;;9.71;83.68;98285.84;5013164;28;20131;-58
2023/01/07 08:33:43;;;;;;;3.00;2.70;;;;;;;9.70;84.23;98291.91;5012389;28;20100;-57
2023/01/07 08:36:10;;;;;;;3.25;2.10;;;;;;;9.67;84.80;98279.91;5020218;28;20083;-58
2023/01/07 08:38:50;;;;;;;4.45;1.98;;;;;;;9.69;83.88;98274.72;5010882;28;20120;-58
2023/01/07 08:41:17;;;;;;;2.55;2.08;;;;;;;9.67;84.16;98277.34;5011160;28;20064;-58
2023/01/07 08:43:44;;;;;;;3.80;2.13;;;;;;;9.68;83.87;98279.03;5011498;28;20112;-58
2023/01/07 08:46:10;;;;;;;1.60;1.48;;;;;;;9.67;83.84;98255.78;5016758;28;20076;-58
2023/01/07 08:48:39;;;;;;;4.45;2.00;;;;;;;9.71;83.94;98268.59;5011864;28;20057;-58
2023/01/07 08:51:06;;;;;;;2.53;2.20;;;;;;;9.71;83.94;98260.84;5012219;28;20054;-58
2023/01/07 08:53:33;;;;;;;2.13;2.03;;;;;;;9.72;84.26;98259.94;5020074;28;20095;-58
2023/01/07 08:56:00;;;;;;;2.17;1.77;;;;;;;9.64;83.73;98247.25;5013147;28;20103;-58
2023/01/07 08:58:26;;;;;;;1.63;0.52;;;;;;;9.73;83.86;98251.28;5017971;28;20421;-58
2023/01/07 09:00:53;;;;;;;3.10;1.67;;;;;;;9.70;83.97;98241.06;5013344;28;22354;-58
2023/01/07 09:03:20;;;;;;;2.00;1.65;;;;;;;9.72;83.64;98230.66;5014438;28;20041;-58
2023/01/07 09:05:47;;;;;;;2.75;2.42;;;;;;;9.74;84.10;98237.50;5012762;28;20115;-57
2023/01/07 09:08:13;;;;;;;3.22;2.28;;;;;;;9.75;83.73;98223.66;5015630;28;20042;-58
2023/01/07 09:10:40;;;;;;;3.13;1.70;;;;;;;9.75;84.26;98231.44;5016201;28;20507;-59
2023/01/07 09:13:06;;;;;;;2.50;2.30;;;;;;;9.75;84.15;98225.41;5014064;28;20076;-57
2023/01/07 09:15:33;;;;;;;4.40;2.47;;;;;;;9.72;84.29;98216.00;5012257;28;20045;-57
2023/01/07 09:18:02;;;;;;;3.58;2.35;;;;;;;9.77;83.59;98218.47;5014651;28;20091;-58
2023/01/07 09:20:29;;;;;;;4.70;3.33;;;;;;;9.79;83.52;98223.59;5016556;28;20045;-58
2023/01/07 09:22:56;;;;;;;3.30;2.20;;;;;;;9.82;83.78;98228.66;5013467;28;20463;-58
2023/01/07 09:25:23;;;;;;;4.65;2.00;;;;;;;9.88;83.48;98216.41;5015090;28;20045;-58
2023/01/07 09:27:50;;;;;;;4.15;1.67;;;;;;;9.84;84.00;98222.56;5012453;28;20053;-58
2023/01/07 09:30:16;;;;;;;1.58;0.77;;;;;;;9.92;83.97;98214.56;5013752;28;20785;-58
2023/01/07 09:32:44;;;;;;;4.70;2.28;;;;;;;9.89;83.84;98225.00;5012322;28;20127;-58
2023/01/07 09:35:11;;;;;;;2.03;1.80;;;;;;;9.89;83.43;98214.66;5017563;28;20049;-58
2023/01/07 09:37:38;;;;;;;2.63;2.38;;;;;;;9.87;83.46;98211.28;5016696;28;20077;-59
2023/01/07 09:40:05;;;;;;;4.72;1.42;;;;;;;9.88;83.19;98216.41;5019781;28;20653;-58
2023/01/07 09:42:57;;;;;;;4.13;2.13;;;;;;;9.92;82.92;98218.91;5014047;28;20139;-58
2023/01/07 09:45:30;;;;;;;2.10;1.90;;;;;;;9.94;83.97;98207.63;5010167;28;20588;-58
2023/01/07 09:47:59;;;;;;;2.60;2.30;;;;;;;9.97;83.76;98197.16;5015231;28;20136;-58
2023/01/07 09:53:13;;;;;;;2.20;0.95;;;;;;;10.00;83.09;98188.50;5001506;28;20408;-58
2023/01/07 09:55:41;;;;;;;6.10;1.52;;;;;;;9.99;83.56;98190.22;4998590;28;20054;-59
2023/01/07 09:58:28;;;;;;;3.05;1.08;;;;;;;10.02;83.25;98184.09;4998505;28;20076;-59
2023/01/07 10:09:16;;;;;;;3.28;1.05;;;;;;;10.12;83.62;98184.66;5056010;27;20406;-58
2023/01/07 10:15:18;;;;;;;2.90;1.00;;;;;;;10.10;83.22;98181.28;5020849;28;20743;-58
2023/01/07 10:21:08;;;;;;;1.48;0.50;;;;;;;10.12;83.23;98179.47;5019289;27;20398;-57
2023/01/07 10:23:39;;;;;;;2.70;2.13;;;;;;;10.10;84.17;98191.63;4997028;28;20136;-58
2023/01/07 10:26:17;;;;;;;2.67;2.03;;;;;;;10.12;83.33;98190.69;4992457;28;20860;-59
2023/01/07 10:28:50;;;;;;;2.70;0.68;;;;;;;10.10;84.00;98181.28;4996268;28;20128;-58
2023/01/07 10:31:21;;;;;;;3.83;2.72;;;;;;;10.07;84.27;98192.59;4998218;28;20461;-58
2023/01/07 10:33:50;;;;;;;3.00;2.10;;;;;;;10.13;84.44;98192.38;4997168;28;20533;-59
2023/01/07 10:41:54;;;;;;;2.88;0.88;;;;;;;10.13;84.66;98170.81;5108949;27;20558;-59
2023/01/07 10:44:47;;;;;;;2.92;1.52;;;;;;;10.20;84.91;98179.25;5047423;27;20069;-59
2023/01/07 10:53:41;;;;;;;2.40;1.17;;;;;;;10.22;84.43;98167.97;5009780;27;20411;-59
2023/01/07 10:58:49;;;;;;;2.40;1.45;;;;;;;10.30;83.62;98172.88;5054253;27;20402;-59
2023/01/07 11:01:38;;;;;;;3.45;1.30;;;;;;;10.33;83.71;98169.38;5012832;28;20046;-59
2023/01/07 11:04:11;;;;;;;3.08;0.88;;;;;;;10.29;83.60;98156.53;5026911;28;20053;-58
2023/01/07 11:07:02;;;;;;;2.33;0.77;;;;;;;10.28;84.01;98154.84;5013205;28;20108;-58
2023/01/07 11:09:32;;;;;;;2.15;0.95;;;;;;;10.35;84.68;98139.97;5032176;28;20117;-59
2023/01/07 11:12:08;;;;;;;4.47;0.68;;;;;;;10.39;84.25;98140.69;5048539;28;20057;-57
2023/01/07 11:14:40;;;;;;;4.50;0.82;;;;;;;10.41;83.79;98136.31;5054775;28;20056;-58
2023/01/07 11:17:22;;;;;;;5.13;0.50;;;;;;;10.40;84.13;98137.19;5051046;28;20044;-57
2023/01/07 11:19:51;;;;;;;4.63;1.00;;;;;;;10.45;83.66;98130.19;5049916;28;20123;-58
2023/01/07 11:22:33;;;;;;;1.20;1.02;;;;;;;10.45;83.56;98135.34;5046184;28;20057;-59
2023/01/07 11:25:02;;;;;;;2.65;0.60;;;;;;;10.51;83.28;98126.53;5051465;28;20142;-59
2023/01/07 11:27:32;;;;;;;4.63;1.27;;;;;;;10.52;82.93;98116.16;5053216;28;20049;-58
2023/01/07 11:32:40;;;;;;;5.75;1.00;;;;;;;10.51;83.70;98109.25;5013493;27;20410;-58
2023/01/07 11:35:23;;;;;;;3.58;0.93;;;;;;;10.57;83.55;98104.78;4998619;28;20038;-59
2023/01/07 11:37:49;;;;;;;5.78;1.73;;;;;;;10.62;83.24;98102.88;4999949;28;20141;-59
2023/01/07 11:42:57;;;;;;;4.35;2.10;;;;;;;10.60;83.62;98099.50;5091723;27;20800;-60
2023/01/07 11:45:27;;;;;;;5.75;2.72;;;;;;;10.59;83.44;98096.06;5048803;28;20045;-59
2023/01/07 11:50:43;;;;;;;6.28;1.80;;;;;;;10.91;82.72;98086.31;5091673;27;20615;-59
2023/01/07 11:58:36;;;;;;;4.63;1.67;;;;;;;10.72;82.97;98080.09;5027348;27;20421;-59
2023/01/07 12:03:44;;;;;;;3.95;2.38;;;;;;;10.71;83.19;98079.25;5041615;28;20390;-59
2023/01/07 12:06:32;;;;;;;5.70;3.35;;;;;;;10.70;83.73;98071.56;5012841;28;20100;-59
2023/01/07 12:11:41;;;;;;;4.10;0.88;;;;;;;10.71;83.49;98057.69;5112621;27;20405;-59
2023/01/07 12:14:24;;;;;;;1.45;0.73;;;;;;;10.63;84.14;98047.59;5060134;28;20114;-59
2023/01/07 12:16:52;;;;;;;4.55;0.80;;;;;;;10.65;83.75;98038.91;5057091;28;20098;-58
2023/01/07 12:19:32;;;;;;;4.15;1.13;;;;;;;10.61;84.18;98046.81;5057408;28;20053;-59
2023/01/07 12:30:50;;;;;;;5.75;1.13;;;;;;;10.80;83.91;98024.56;5031472;28;20399;-59
2023/01/07 12:36:33;;;;;;;2.70;0.88;;;;;;;10.86;82.89;98014.88;5049824;28;20408;-59
2023/01/07 12:39:02;;;;;;;2.65;0.80;;;;;;;10.84;83.32;98021.88;4999852;28;20042;-58
2023/01/07 12:41:37;;;;;;;2.95;0.90;;;;;;;10.83;82.80;98010.66;5017350;28;20061;-59
2023/01/07 12:44:13;;;;;;;1.40;1.23;;;;;;;10.78;83.41;98003.03;5003485;28;20627;-59
2023/01/07 12:46:49;;;;;;;3.40;0.63;;;;;;;10.83;82.56;98010.66;4998494;28;20086;-58
2023/01/07 12:49:24;;;;;;;4.53;0.95;;;;;;;10.89;83.24;98012.16;4998630;28;20108;-59
2023/01/07 12:51:59;;;;;;;6.95;1.77;;;;;;;10.85;83.05;98008.84;5006579;28;20103;-59
2023/01/07 13:00:07;;;;;;;6.75;1.52;;;;;;;11.10;81.31;97992.38;5051010;28;20397;-58
2023/01/07 13:05:19;;;;;;;4.68;0.70;;;;;;;10.89;82.40;97994.03;4979647;28;20417;-59
2023/01/07 13:10:29;;;;;;;6.20;1.63;;;;;;;10.78;82.00;97991.84;5024935;28;20424;-58
2023/01/07 13:13:01;;;;;;;2.35;0.60;;;;;;;10.78;82.70;97982.31;4998562;28;20092;-58
2023/01/07 13:15:32;;;;;;;2.08;0.65;;;;;;;10.76;82.15;97984.13;4993092;28;20054;-58
2023/01/07 13:18:13;;;;;;;3.25;1.08;;;;;;;10.76;81.77;97984.13;4993168;28;20054;-57
2023/01/07 13:21:09;;;;;;;2.40;0.55;;;;;;;10.75;81.57;97987.63;4990515;28;20595;-58
2023/01/07 13:27:02;;;;;;;2.42;1.95;;;;;;;10.79;82.06;97973.69;5034277;28;20390;-59
2023/01/07 13:35:26;;;;;;;3.00;0.88;;;;;;;11.03;80.63;97984.00;5022582;28;20991;-58
2023/01/07 13:38:32;;;;;;;4.32;1.40;;;;;;;10.85;81.01;97992.47;5000120;28;20141;-58
2023/01/07 13:46:32;;;;;;;3.13;0.50;;;;;;;10.84;81.24;97985.59;5025446;27;20415;-58
2023/01/07 13:48:59;;;;;;;0.77;0.47;;;;;;;10.82;81.10;97979.63;5000183;28;20048;-58
2023/01/07 13:51:32;;;;;;;1.65;0.40;;;;;;;10.78;81.87;97974.56;4998666;28;20045;-59
2023/01/07 13:53:59;;;;;;;1.38;0.20;;;;;;;10.73;81.07;97963.53;5000013;28;20480;-59
2023/01/07 13:59:03;;;;;;;2.08;0.32;;;;;;;10.72;81.81;97961.84;5016261;28;20439;-59
2023/01/07 14:01:32;;;;;;;1.15;0.30;;;;;;;10.69;81.37;97966.28;4996695;28;20050;-59
2023/01/07 14:06:42;;;;;;;1.92;1.17;;;;;;;10.72;81.66;97956.69;5022916;28;20891;-59
2023/01/07 14:09:20;;;;;;;4.70;1.63;;;;;;;10.72;81.78;97914.38;4993034;28;20112;-59